sensor_id;sensor_type;location;lat;lon;timestamp;pressure;altitude;pressure_sealevel;temperature;humidity
3598;BME280;1813;52.016;8.714;2023-04-07T00:00:31;-16261.94;;;-139.71;59.28
3598;BME280;1813;52.016;8.714;2023-04-07T00:03:05;-16261.94;;;-139.71;59.73
3598;BME280;1813;52.016;8.714;2023-04-07T00:05:39;-16261.94;;;-139.71;60.30
3598;BME280;1813;52.016;8.714;2023-04-07T00:08:13;-16261.94;;;-139.71;60.77
3598;BME280;1813;52.016;8.714;2023-04-07T00:10:47;-16261.94;;;-139.71;61.06
3598;BME280;1813;52.016;8.714;2023-04-07T00:13:21;-16261.94;;;-139.71;61.13
3598;BME280;1813;52.016;8.714;2023-04-07T00:15:57;-16261.94;;;-139.71;61.41
3598;BME280;1813;52.016;8.714;2023-04-07T00:18:31;-16261.94;;;-139.71;61.83
3598;BME280;1813;52.016;8.714;2023-04-07T00:21:05;-16261.94;;;-139.71;61.64
3598;BME280;1813;52.016;8.714;2023-04-07T00:23:39;-16261.94;;;-139.71;61.81
3598;BME280;1813;52.016;8.714;2023-04-07T00:26:13;-16261.94;;;-139.71;61.48
3598;BME280;1813;52.016;8.714;2023-04-07T00:28:48;-16261.94;;;-139.71;61.38
3598;BME280;1813;52.016;8.714;2023-04-07T00:31:25;-16261.94;;;-139.71;61.39
3598;BME280;1813;52.016;8.714;2023-04-07T00:33:59;-16261.94;;;-139.71;61.28
3598;BME280;1813;52.016;8.714;2023-04-07T00:36:32;-16261.94;;;-139.71;61.43
3598;BME280;1813;52.016;8.714;2023-04-07T00:39:06;-16261.94;;;-139.71;61.38
3598;BME280;1813;52.016;8.714;2023-04-07T00:41:41;-16261.94;;;-139.71;61.27
3598;BME280;1813;52.016;8.714;2023-04-07T00:44:15;-16261.94;;;-139.71;60.90
3598;BME280;1813;52.016;8.714;2023-04-07T00:46:52;-16261.94;;;-139.71;60.93
3598;BME280;1813;52.016;8.714;2023-04-07T00:49:26;-16261.94;;;-139.71;60.82
3598;BME280;1813;52.016;8.714;2023-04-07T00:52:02;-16261.94;;;-139.71;60.93
3598;BME280;1813;52.016;8.714;2023-04-07T00:54:37;-16261.94;;;-139.71;60.64
3598;BME280;1813;52.016;8.714;2023-04-07T00:57:11;-16261.94;;;-139.71;60.75
3598;BME280;1813;52.016;8.714;2023-04-07T00:59:45;-16261.94;;;-139.71;60.84
3598;BME280;1813;52.016;8.714;2023-04-07T01:02:28;-16261.94;;;-139.71;60.50
3598;BME280;1813;52.016;8.714;2023-04-07T01:05:12;-16261.94;;;-139.71;60.21
3598;BME280;1813;52.016;8.714;2023-04-07T01:07:54;-16261.94;;;-139.71;60.18
3598;BME280;1813;52.016;8.714;2023-04-07T01:10:36;-16261.94;;;-139.71;60.18
3598;BME280;1813;52.016;8.714;2023-04-07T01:13:22;-16261.94;;;-139.71;60.36
3598;BME280;1813;52.016;8.714;2023-04-07T01:16:10;-16261.94;;;-139.71;60.37
3598;BME280;1813;52.016;8.714;2023-04-07T01:18:56;-16261.94;;;-139.71;60.79
3598;BME280;1813;52.016;8.714;2023-04-07T01:21:32;-16261.94;;;-139.71;60.48
3598;BME280;1813;52.016;8.714;2023-04-07T01:24:31;-16261.94;;;-139.71;60.40
3598;BME280;1813;52.016;8.714;2023-04-07T01:27:16;-16261.94;;;-139.71;60.47
3598;BME280;1813;52.016;8.714;2023-04-07T01:29:55;-16261.94;;;-139.71;60.36
3598;BME280;1813;52.016;8.714;2023-04-07T01:32:32;-16261.94;;;-139.71;60.62
3598;BME280;1813;52.016;8.714;2023-04-07T01:35:10;-16261.94;;;-139.71;61.03
3598;BME280;1813;52.016;8.714;2023-04-07T01:37:46;-16261.94;;;-139.71;60.81
3598;BME280;1813;52.016;8.714;2023-04-07T01:40:22;-16261.94;;;-139.71;61.01
3598;BME280;1813;52.016;8.714;2023-04-07T01:42:57;-16261.94;;;-139.71;61.28
3598;BME280;1813;52.016;8.714;2023-04-07T01:45:36;-16261.94;;;-139.71;61.55
3598;BME280;1813;52.016;8.714;2023-04-07T01:48:11;-16261.94;;;-139.71;61.68
3598;BME280;1813;52.016;8.714;2023-04-07T01:50:46;-16261.94;;;-139.71;61.65
3598;BME280;1813;52.016;8.714;2023-04-07T01:53:21;-16261.94;;;-139.71;61.59
3598;BME280;1813;52.016;8.714;2023-04-07T01:55:55;-16261.94;;;-139.71;62.07
3598;BME280;1813;52.016;8.714;2023-04-07T01:58:30;-16261.94;;;-139.71;62.39
3598;BME280;1813;52.016;8.714;2023-04-07T02:01:06;-16261.94;;;-139.71;62.30
3598;BME280;1813;52.016;8.714;2023-04-07T02:03:43;-16261.94;;;-139.71;62.57
3598;BME280;1813;52.016;8.714;2023-04-07T02:06:22;-16261.94;;;-139.71;62.84
3598;BME280;1813;52.016;8.714;2023-04-07T02:09:00;-16261.94;;;-139.71;63.11
3598;BME280;1813;52.016;8.714;2023-04-07T02:11:36;-16261.94;;;-139.71;63.41
3598;BME280;1813;52.016;8.714;2023-04-07T02:14:13;-16261.94;;;-139.71;63.84
3598;BME280;1813;52.016;8.714;2023-04-07T02:17:03;-16261.94;;;-139.71;64.37
3598;BME280;1813;52.016;8.714;2023-04-07T02:19:37;-16261.94;;;-139.71;64.84
3598;BME280;1813;52.016;8.714;2023-04-07T02:22:12;-16261.94;;;-139.71;65.03
3598;BME280;1813;52.016;8.714;2023-04-07T02:24:47;-16261.94;;;-139.71;65.51
3598;BME280;1813;52.016;8.714;2023-04-07T02:27:21;-16261.94;;;-139.71;65.95
3598;BME280;1813;52.016;8.714;2023-04-07T02:29:56;-16261.94;;;-139.71;66.44
3598;BME280;1813;52.016;8.714;2023-04-07T02:32:33;-16261.94;;;-139.71;66.63
3598;BME280;1813;52.016;8.714;2023-04-07T02:35:07;-16261.94;;;-139.71;67.17
3598;BME280;1813;52.016;8.714;2023-04-07T02:37:41;-16261.94;;;-139.71;67.73
3598;BME280;1813;52.016;8.714;2023-04-07T02:40:19;-16261.94;;;-139.71;68.16
3598;BME280;1813;52.016;8.714;2023-04-07T02:42:52;-16261.94;;;-139.71;68.70
3598;BME280;1813;52.016;8.714;2023-04-07T02:45:26;-16261.94;;;-139.71;69.05
3598;BME280;1813;52.016;8.714;2023-04-07T02:48:04;-16261.94;;;-139.71;69.52
3598;BME280;1813;52.016;8.714;2023-04-07T02:50:38;-16261.94;;;-139.71;69.95
3598;BME280;1813;52.016;8.714;2023-04-07T02:53:11;-16261.94;;;-139.71;70.42
3598;BME280;1813;52.016;8.714;2023-04-07T02:55:45;-16261.94;;;-139.71;70.96
3598;BME280;1813;52.016;8.714;2023-04-07T02:58:19;-16261.94;;;-139.71;71.47
3598;BME280;1813;52.016;8.714;2023-04-07T03:00:53;-16261.94;;;-139.71;71.92
3598;BME280;1813;52.016;8.714;2023-04-07T03:03:34;-16261.94;;;-139.71;72.30
3598;BME280;1813;52.016;8.714;2023-04-07T03:06:14;-16261.94;;;-139.71;72.35
3598;BME280;1813;52.016;8.714;2023-04-07T03:09:00;-16261.94;;;-139.71;72.46
3598;BME280;1813;52.016;8.714;2023-04-07T03:11:35;-16261.94;;;-139.71;72.60
3598;BME280;1813;52.016;8.714;2023-04-07T03:14:09;-16261.94;;;-139.71;72.64
3598;BME280;1813;52.016;8.714;2023-04-07T03:16:50;-16261.94;;;-139.71;72.92
3598;BME280;1813;52.016;8.714;2023-04-07T03:19:28;-16261.94;;;-139.71;73.30
3598;BME280;1813;52.016;8.714;2023-04-07T03:22:02;-16261.94;;;-139.71;73.46
3598;BME280;1813;52.016;8.714;2023-04-07T03:24:43;-16261.94;;;-139.71;73.91
3598;BME280;1813;52.016;8.714;2023-04-07T03:27:18;-16261.94;;;-139.71;74.27
3598;BME280;1813;52.016;8.714;2023-04-07T03:29:53;-16261.94;;;-139.71;74.58
3598;BME280;1813;52.016;8.714;2023-04-07T03:32:29;-16261.94;;;-139.71;75.07
3598;BME280;1813;52.016;8.714;2023-04-07T03:35:07;-16261.94;;;-139.71;75.28
3598;BME280;1813;52.016;8.714;2023-04-07T03:37:41;-16261.94;;;-139.71;75.65
3598;BME280;1813;52.016;8.714;2023-04-07T03:40:19;-16261.94;;;-139.71;76.01
3598;BME280;1813;52.016;8.714;2023-04-07T03:42:53;-16261.94;;;-139.71;76.22
3598;BME280;1813;52.016;8.714;2023-04-07T03:45:27;-16261.94;;;-139.71;76.54
3598;BME280;1813;52.016;8.714;2023-04-07T03:48:01;-16261.94;;;-139.71;76.72
3598;BME280;1813;52.016;8.714;2023-04-07T03:50:39;-16261.94;;;-139.71;77.19
3598;BME280;1813;52.016;8.714;2023-04-07T03:53:18;-16261.94;;;-139.71;77.44
3598;BME280;1813;52.016;8.714;2023-04-07T03:55:53;-16261.94;;;-139.71;77.81
3598;BME280;1813;52.016;8.714;2023-04-07T03:58:46;-16261.94;;;-139.71;77.91
3598;BME280;1813;52.016;8.714;2023-04-07T04:02:08;-16261.94;;;-139.71;78.06
3598;BME280;1813;52.016;8.714;2023-04-07T04:04:42;-16261.94;;;-139.71;78.29
3598;BME280;1813;52.016;8.714;2023-04-07T04:07:20;-16261.94;;;-139.71;78.62
3598;BME280;1813;52.016;8.714;2023-04-07T04:09:57;-16261.94;;;-139.71;78.98
3598;BME280;1813;52.016;8.714;2023-04-07T04:12:32;-16261.94;;;-139.71;78.95
3598;BME280;1813;52.016;8.714;2023-04-07T04:15:11;-16261.94;;;-139.71;79.26
3598;BME280;1813;52.016;8.714;2023-04-07T04:17:45;-16261.94;;;-139.71;79.44
3598;BME280;1813;52.016;8.714;2023-04-07T04:20:20;-16261.94;;;-139.71;79.63
3598;BME280;1813;52.016;8.714;2023-04-07T04:22:58;-16261.94;;;-139.71;79.83
3598;BME280;1813;52.016;8.714;2023-04-07T04:25:32;-16261.94;;;-139.71;80.00
3598;BME280;1813;52.016;8.714;2023-04-07T04:28:11;-16261.94;;;-139.71;80.01
3598;BME280;1813;52.016;8.714;2023-04-07T04:30:45;-16261.94;;;-139.71;80.15
3598;BME280;1813;52.016;8.714;2023-04-07T04:33:19;-16261.94;;;-139.71;80.24
3598;BME280;1813;52.016;8.714;2023-04-07T04:35:58;-16261.94;;;-139.71;80.22
3598;BME280;1813;52.016;8.714;2023-04-07T04:38:36;-16261.94;;;-139.71;80.11
3598;BME280;1813;52.016;8.714;2023-04-07T04:41:24;-16261.94;;;-139.71;80.15
3598;BME280;1813;52.016;8.714;2023-04-07T04:43:59;-16261.94;;;-139.71;80.15
3598;BME280;1813;52.016;8.714;2023-04-07T04:46:35;-16261.94;;;-139.71;80.26
3598;BME280;1813;52.016;8.714;2023-04-07T04:49:09;-16261.94;;;-139.71;80.23
3598;BME280;1813;52.016;8.714;2023-04-07T04:51:44;-16261.94;;;-139.71;80.37
3598;BME280;1813;52.016;8.714;2023-04-07T04:54:23;-16261.94;;;-139.71;80.28
3598;BME280;1813;52.016;8.714;2023-04-07T04:56:57;-16261.94;;;-139.71;80.41
3598;BME280;1813;52.016;8.714;2023-04-07T04:59:33;-16261.94;;;-139.71;80.43
3598;BME280;1813;52.016;8.714;2023-04-07T05:02:08;-16261.94;;;-139.71;80.50
3598;BME280;1813;52.016;8.714;2023-04-07T05:04:42;-16261.94;;;-139.71;80.42
3598;BME280;1813;52.016;8.714;2023-04-07T05:07:26;-16261.94;;;-139.71;80.60
3598;BME280;1813;52.016;8.714;2023-04-07T05:10:04;-16261.94;;;-139.71;80.64
3598;BME280;1813;52.016;8.714;2023-04-07T05:12:41;-16261.94;;;-139.71;80.64
3598;BME280;1813;52.016;8.714;2023-04-07T05:15:15;-16261.94;;;-139.71;80.78
3598;BME280;1813;52.016;8.714;2023-04-07T05:17:52;-16261.94;;;-139.71;80.86
3598;BME280;1813;52.016;8.714;2023-04-07T05:20:30;-16261.94;;;-139.71;80.79
3598;BME280;1813;52.016;8.714;2023-04-07T05:23:04;-16261.94;;;-139.71;80.75
3598;BME280;1813;52.016;8.714;2023-04-07T05:25:43;-16261.94;;;-139.71;80.63
3598;BME280;1813;52.016;8.714;2023-04-07T05:28:17;-16261.94;;;-139.71;80.83
3598;BME280;1813;52.016;8.714;2023-04-07T05:30:52;-16261.94;;;-139.71;80.79
3598;BME280;1813;52.016;8.714;2023-04-07T05:33:31;-16261.94;;;-139.71;80.43
3598;BME280;1813;52.016;8.714;2023-04-07T05:36:07;-16261.94;;;-139.71;80.35
3598;BME280;1813;52.016;8.714;2023-04-07T05:38:43;-16261.94;;;-139.71;80.14
3598;BME280;1813;52.016;8.714;2023-04-07T05:41:23;-16261.94;;;-139.71;80.10
3598;BME280;1813;52.016;8.714;2023-04-07T05:43:57;-16261.94;;;-139.71;80.05
3598;BME280;1813;52.016;8.714;2023-04-07T05:46:31;-16261.94;;;-139.71;79.97
3598;BME280;1813;52.016;8.714;2023-04-07T05:49:05;-16261.94;;;-139.71;80.06
3598;BME280;1813;52.016;8.714;2023-04-07T05:51:39;-16261.94;;;-139.71;80.10
3598;BME280;1813;52.016;8.714;2023-04-07T05:54:17;-16261.94;;;-139.71;80.01
3598;BME280;1813;52.016;8.714;2023-04-07T05:56:58;-16261.94;;;-139.71;80.15
3598;BME280;1813;52.016;8.714;2023-04-07T05:59:35;-16261.94;;;-139.71;80.10
3598;BME280;1813;52.016;8.714;2023-04-07T06:02:10;-16261.94;;;-139.71;80.16
3598;BME280;1813;52.016;8.714;2023-04-07T06:04:44;-16261.94;;;-139.71;79.82
3598;BME280;1813;52.016;8.714;2023-04-07T06:07:21;-16261.94;;;-139.71;79.39
3598;BME280;1813;52.016;8.714;2023-04-07T06:09:55;-16261.94;;;-139.71;78.95
3598;BME280;1813;52.016;8.714;2023-04-07T06:12:32;-16261.94;;;-139.71;78.82
3598;BME280;1813;52.016;8.714;2023-04-07T06:15:07;-16261.94;;;-139.71;78.50
3598;BME280;1813;52.016;8.714;2023-04-07T06:17:41;-16261.94;;;-139.71;78.41
3598;BME280;1813;52.016;8.714;2023-04-07T06:20:16;-16261.94;;;-139.71;78.39
3598;BME280;1813;52.016;8.714;2023-04-07T06:22:51;-16261.94;;;-139.71;78.24
3598;BME280;1813;52.016;8.714;2023-04-07T06:25:25;-16261.94;;;-139.71;77.67
3598;BME280;1813;52.016;8.714;2023-04-07T06:28:01;-16261.94;;;-139.71;77.27
3598;BME280;1813;52.016;8.714;2023-04-07T06:30:36;-16261.94;;;-139.71;76.82
3598;BME280;1813;52.016;8.714;2023-04-07T06:33:14;-16261.94;;;-139.71;76.51
3598;BME280;1813;52.016;8.714;2023-04-07T06:35:48;-16261.94;;;-139.71;76.03
3598;BME280;1813;52.016;8.714;2023-04-07T06:38:22;-16261.94;;;-139.71;75.95
3598;BME280;1813;52.016;8.714;2023-04-07T06:40:56;-16261.94;;;-139.71;75.49
3598;BME280;1813;52.016;8.714;2023-04-07T06:43:32;-16261.94;;;-139.71;75.04
3598;BME280;1813;52.016;8.714;2023-04-07T06:46:08;-16261.94;;;-139.71;74.71
3598;BME280;1813;52.016;8.714;2023-04-07T06:48:42;-16261.94;;;-139.71;74.74
3598;BME280;1813;52.016;8.714;2023-04-07T06:51:16;-16261.94;;;-139.71;74.49
3598;BME280;1813;52.016;8.714;2023-04-07T06:53:50;-16261.94;;;-139.71;74.18
3598;BME280;1813;52.016;8.714;2023-04-07T06:56:24;-16261.94;;;-139.71;74.00
3598;BME280;1813;52.016;8.714;2023-04-07T06:59:00;-16261.94;;;-139.71;74.31
3598;BME280;1813;52.016;8.714;2023-04-07T07:01:35;-16261.94;;;-139.71;74.39
3598;BME280;1813;52.016;8.714;2023-04-07T07:04:09;-16261.94;;;-139.71;74.03
3598;BME280;1813;52.016;8.714;2023-04-07T07:06:43;-16261.94;;;-139.71;74.13
3598;BME280;1813;52.016;8.714;2023-04-07T07:09:17;-16261.94;;;-139.71;73.41
3598;BME280;1813;52.016;8.714;2023-04-07T07:11:51;-16261.94;;;-139.71;72.69
3598;BME280;1813;52.016;8.714;2023-04-07T07:14:28;-16261.94;;;-139.71;72.22
3598;BME280;1813;52.016;8.714;2023-04-07T07:17:02;-16261.94;;;-139.71;72.31
3598;BME280;1813;52.016;8.714;2023-04-07T07:19:36;-16261.94;;;-139.71;71.93
3598;BME280;1813;52.016;8.714;2023-04-07T07:22:09;-16261.94;;;-139.71;71.09
3598;BME280;1813;52.016;8.714;2023-04-07T07:24:43;-16261.94;;;-139.71;70.72
3598;BME280;1813;52.016;8.714;2023-04-07T07:27:17;-16261.94;;;-139.71;71.06
3598;BME280;1813;52.016;8.714;2023-04-07T07:29:54;-16261.94;;;-139.71;70.57
3598;BME280;1813;52.016;8.714;2023-04-07T07:32:28;-16261.94;;;-139.71;70.37
3598;BME280;1813;52.016;8.714;2023-04-07T07:35:02;-16261.94;;;-139.71;69.67
3598;BME280;1813;52.016;8.714;2023-04-07T07:37:36;-16261.94;;;-139.71;69.18
3598;BME280;1813;52.016;8.714;2023-04-07T07:40:10;-16261.94;;;-139.71;69.10
3598;BME280;1813;52.016;8.714;2023-04-07T07:42:44;-16261.94;;;-139.71;69.20
3598;BME280;1813;52.016;8.714;2023-04-07T07:45:21;-16261.94;;;-139.71;68.87
3598;BME280;1813;52.016;8.714;2023-04-07T07:47:55;-16261.94;;;-139.71;68.71
3598;BME280;1813;52.016;8.714;2023-04-07T07:50:29;-16261.94;;;-139.71;69.29
3598;BME280;1813;52.016;8.714;2023-04-07T07:53:03;-16261.94;;;-139.71;69.13
3598;BME280;1813;52.016;8.714;2023-04-07T07:55:37;-16261.94;;;-139.71;68.59
3598;BME280;1813;52.016;8.714;2023-04-07T07:58:11;-16261.94;;;-139.71;68.35
3598;BME280;1813;52.016;8.714;2023-04-07T08:00:47;-16261.94;;;-139.71;68.36
3598;BME280;1813;52.016;8.714;2023-04-07T08:03:21;-16261.94;;;-139.71;67.36
3598;BME280;1813;52.016;8.714;2023-04-07T08:05:55;-16261.94;;;-139.71;66.49
3598;BME280;1813;52.016;8.714;2023-04-07T08:08:29;-16261.94;;;-139.71;66.42
3598;BME280;1813;52.016;8.714;2023-04-07T08:11:03;-16261.94;;;-139.71;65.88
3598;BME280;1813;52.016;8.714;2023-04-07T08:13:36;-16261.94;;;-139.71;65.17
3598;BME280;1813;52.016;8.714;2023-04-07T08:16:17;-16261.94;;;-139.71;64.99
3598;BME280;1813;52.016;8.714;2023-04-07T08:18:51;-16261.94;;;-139.71;64.11
3598;BME280;1813;52.016;8.714;2023-04-07T08:21:25;-16261.94;;;-139.71;64.01
3598;BME280;1813;52.016;8.714;2023-04-07T08:23:59;-16261.94;;;-139.71;64.23
3598;BME280;1813;52.016;8.714;2023-04-07T08:26:33;-16261.94;;;-139.71;64.54
3598;BME280;1813;52.016;8.714;2023-04-07T08:29:07;-16261.94;;;-139.71;63.70
3598;BME280;1813;52.016;8.714;2023-04-07T08:31:43;-16261.94;;;-139.71;63.32
3598;BME280;1813;52.016;8.714;2023-04-07T08:34:17;-16261.94;;;-139.71;63.72
3598;BME280;1813;52.016;8.714;2023-04-07T08:36:51;-16261.94;;;-139.71;62.29
3598;BME280;1813;52.016;8.714;2023-04-07T08:39:25;-16261.94;;;-139.71;61.08
3598;BME280;1813;52.016;8.714;2023-04-07T08:41:59;-16261.94;;;-139.71;59.95
3598;BME280;1813;52.016;8.714;2023-04-07T08:44:35;-16261.94;;;-139.71;60.91
3598;BME280;1813;52.016;8.714;2023-04-07T08:47:15;-16261.94;;;-139.71;60.09
3598;BME280;1813;52.016;8.714;2023-04-07T08:49:51;-16261.94;;;-139.71;59.99
3598;BME280;1813;52.016;8.714;2023-04-07T08:52:32;-16261.94;;;-139.71;58.53
3598;BME280;1813;52.016;8.714;2023-04-07T08:55:08;-16261.94;;;-139.71;59.03
3598;BME280;1813;52.016;8.714;2023-04-07T08:57:42;-16261.94;;;-139.71;58.17
3598;BME280;1813;52.016;8.714;2023-04-07T09:00:16;-16261.94;;;-139.71;57.64
3598;BME280;1813;52.016;8.714;2023-04-07T09:02:53;-16261.94;;;-139.71;57.67
3598;BME280;1813;52.016;8.714;2023-04-07T09:05:28;-16261.94;;;-139.71;56.73
3598;BME280;1813;52.016;8.714;2023-04-07T09:08:03;-16261.94;;;-139.71;57.22
3598;BME280;1813;52.016;8.714;2023-04-07T09:10:37;-16261.94;;;-139.71;57.09
3598;BME280;1813;52.016;8.714;2023-04-07T09:13:11;-16261.94;;;-139.71;56.59
3598;BME280;1813;52.016;8.714;2023-04-07T09:15:44;-16261.94;;;-139.71;56.08
3598;BME280;1813;52.016;8.714;2023-04-07T09:18:21;-16261.94;;;-139.71;55.07
3598;BME280;1813;52.016;8.714;2023-04-07T09:20:56;-16261.94;;;-139.71;54.46
3598;BME280;1813;52.016;8.714;2023-04-07T09:23:32;-16261.94;;;-139.71;55.33
3598;BME280;1813;52.016;8.714;2023-04-07T09:26:21;-16261.94;;;-139.71;56.51
3598;BME280;1813;52.016;8.714;2023-04-07T09:28:58;-16261.94;;;-139.71;56.42
3598;BME280;1813;52.016;8.714;2023-04-07T09:31:43;-16261.94;;;-139.71;56.15
3598;BME280;1813;52.016;8.714;2023-04-07T09:34:28;-16261.94;;;-139.71;54.73
3598;BME280;1813;52.016;8.714;2023-04-07T09:37:04;-16261.94;;;-139.71;54.37
3598;BME280;1813;52.016;8.714;2023-04-07T09:39:48;-16261.94;;;-139.71;53.35
3598;BME280;1813;52.016;8.714;2023-04-07T09:42:23;-16261.94;;;-139.71;53.42
3598;BME280;1813;52.016;8.714;2023-04-07T09:45:00;-16261.94;;;-139.71;52.56
3598;BME280;1813;52.016;8.714;2023-04-07T09:47:34;-16261.94;;;-139.71;52.41
3598;BME280;1813;52.016;8.714;2023-04-07T09:50:11;-16261.94;;;-139.71;51.35
3598;BME280;1813;52.016;8.714;2023-04-07T09:52:49;-16261.94;;;-139.71;51.26
3598;BME280;1813;52.016;8.714;2023-04-07T09:55:24;-16261.94;;;-139.71;50.69
3598;BME280;1813;52.016;8.714;2023-04-07T09:57:59;-16261.94;;;-139.71;49.65
3598;BME280;1813;52.016;8.714;2023-04-07T10:00:34;-16261.94;;;-139.71;49.58
3598;BME280;1813;52.016;8.714;2023-04-07T10:03:08;-16261.94;;;-139.71;49.18
3598;BME280;1813;52.016;8.714;2023-04-07T10:05:44;-16261.94;;;-139.71;50.24
3598;BME280;1813;52.016;8.714;2023-04-07T10:08:19;-16261.94;;;-139.71;48.90
3598;BME280;1813;52.016;8.714;2023-04-07T10:10:53;-16261.94;;;-139.71;47.82
3598;BME280;1813;52.016;8.714;2023-04-07T10:13:28;-16261.94;;;-139.71;48.45
3598;BME280;1813;52.016;8.714;2023-04-07T10:16:04;-16261.94;;;-139.71;47.41
3598;BME280;1813;52.016;8.714;2023-04-07T10:18:38;-16261.94;;;-139.71;46.96
3598;BME280;1813;52.016;8.714;2023-04-07T10:21:15;-16261.94;;;-139.71;47.06
3598;BME280;1813;52.016;8.714;2023-04-07T10:23:55;-16261.94;;;-139.71;48.01
3598;BME280;1813;52.016;8.714;2023-04-07T10:26:34;-16261.94;;;-139.71;45.32
3598;BME280;1813;52.016;8.714;2023-04-07T10:29:12;-16261.94;;;-139.71;44.54
3598;BME280;1813;52.016;8.714;2023-04-07T10:31:48;-16261.94;;;-139.71;44.52
3598;BME280;1813;52.016;8.714;2023-04-07T10:37:30;-16261.94;;;-139.71;43.50
3598;BME280;1813;52.016;8.714;2023-04-07T10:40:28;-16261.94;;;-139.71;42.80
3598;BME280;1813;52.016;8.714;2023-04-07T10:43:03;-16261.94;;;-139.71;42.21
3598;BME280;1813;52.016;8.714;2023-04-07T10:45:53;-16261.94;;;-139.71;42.54
3598;BME280;1813;52.016;8.714;2023-04-07T10:48:29;-16261.94;;;-139.71;42.16
3598;BME280;1813;52.016;8.714;2023-04-07T10:51:13;-16261.94;;;-139.71;42.18
3598;BME280;1813;52.016;8.714;2023-04-07T10:57:11;-16261.94;;;-139.71;41.18
3598;BME280;1813;52.016;8.714;2023-04-07T11:00:13;-16261.94;;;-139.71;42.06
3598;BME280;1813;52.016;8.714;2023-04-07T11:02:47;-16261.94;;;-139.71;41.14
3598;BME280;1813;52.016;8.714;2023-04-07T11:05:21;-16261.94;;;-139.71;41.18
3598;BME280;1813;52.016;8.714;2023-04-07T11:07:55;-16261.94;;;-139.71;40.14
3598;BME280;1813;52.016;8.714;2023-04-07T11:10:32;-16261.94;;;-139.71;39.66
3598;BME280;1813;52.016;8.714;2023-04-07T11:13:09;-16261.94;;;-139.71;39.17
3598;BME280;1813;52.016;8.714;2023-04-07T11:15:42;-16261.94;;;-139.71;39.09
3598;BME280;1813;52.016;8.714;2023-04-07T11:18:18;-16261.94;;;-139.71;38.24
3598;BME280;1813;52.016;8.714;2023-04-07T11:20:54;-16261.94;;;-139.71;38.64
3598;BME280;1813;52.016;8.714;2023-04-07T11:23:29;-16261.94;;;-139.71;38.39
3598;BME280;1813;52.016;8.714;2023-04-07T11:26:03;-16261.94;;;-139.71;37.76
3598;BME280;1813;52.016;8.714;2023-04-07T11:28:47;-16261.94;;;-139.71;38.03
3598;BME280;1813;52.016;8.714;2023-04-07T11:31:22;-16261.94;;;-139.71;37.72
3598;BME280;1813;52.016;8.714;2023-04-07T11:33:58;-16261.94;;;-139.71;38.24
3598;BME280;1813;52.016;8.714;2023-04-07T11:36:34;-16261.94;;;-139.71;37.84
3598;BME280;1813;52.016;8.714;2023-04-07T11:39:17;-16261.94;;;-139.71;36.94
3598;BME280;1813;52.016;8.714;2023-04-07T11:41:52;-16261.94;;;-139.71;36.49
3598;BME280;1813;52.016;8.714;2023-04-07T11:44:28;-16261.94;;;-139.71;35.09
3598;BME280;1813;52.016;8.714;2023-04-07T11:47:02;-16261.94;;;-139.71;34.98
3598;BME280;1813;52.016;8.714;2023-04-07T11:49:43;-16261.94;;;-139.71;35.47
3598;BME280;1813;52.016;8.714;2023-04-07T11:52:17;-16261.94;;;-139.71;35.31
3598;BME280;1813;52.016;8.714;2023-04-07T11:54:51;-16261.94;;;-139.71;35.23
3598;BME280;1813;52.016;8.714;2023-04-07T11:57:42;-16261.94;;;-139.71;34.31
3598;BME280;1813;52.016;8.714;2023-04-07T12:00:20;-16261.94;;;-139.71;35.00
3598;BME280;1813;52.016;8.714;2023-04-07T12:02:53;-16261.94;;;-139.71;35.14
3598;BME280;1813;52.016;8.714;2023-04-07T12:05:41;-16261.94;;;-139.71;34.50
3598;BME280;1813;52.016;8.714;2023-04-07T12:08:15;-16261.94;;;-139.71;34.31
3598;BME280;1813;52.016;8.714;2023-04-07T12:11:02;-16261.94;;;-139.71;34.31
3598;BME280;1813;52.016;8.714;2023-04-07T12:13:37;-16261.94;;;-139.71;34.52
3598;BME280;1813;52.016;8.714;2023-04-07T12:16:15;-16261.94;;;-139.71;35.28
3598;BME280;1813;52.016;8.714;2023-04-07T12:18:48;-16261.94;;;-139.71;35.23
3598;BME280;1813;52.016;8.714;2023-04-07T12:21:23;-16261.94;;;-139.71;34.99
3598;BME280;1813;52.016;8.714;2023-04-07T12:23:57;-16261.94;;;-139.71;35.48
3598;BME280;1813;52.016;8.714;2023-04-07T12:26:31;-16261.94;;;-139.71;35.21
3598;BME280;1813;52.016;8.714;2023-04-07T12:29:05;-16261.94;;;-139.71;36.18
3598;BME280;1813;52.016;8.714;2023-04-07T12:31:42;-16261.94;;;-139.71;35.42
3598;BME280;1813;52.016;8.714;2023-04-07T12:34:16;-16261.94;;;-139.71;35.61
3598;BME280;1813;52.016;8.714;2023-04-07T12:36:50;-16261.94;;;-139.71;35.70
3598;BME280;1813;52.016;8.714;2023-04-07T12:39:24;-16261.94;;;-139.71;35.70
3598;BME280;1813;52.016;8.714;2023-04-07T12:41:58;-16261.94;;;-139.71;35.70
3598;BME280;1813;52.016;8.714;2023-04-07T12:44:32;-16261.94;;;-139.71;34.92
3598;BME280;1813;52.016;8.714;2023-04-07T12:47:08;-16261.94;;;-139.71;35.48
3598;BME280;1813;52.016;8.714;2023-04-07T12:49:43;-16261.94;;;-139.71;36.08
3598;BME280;1813;52.016;8.714;2023-04-07T12:52:17;-16261.94;;;-139.71;36.31
3598;BME280;1813;52.016;8.714;2023-04-07T12:54:50;-16261.94;;;-139.71;36.24
3598;BME280;1813;52.016;8.714;2023-04-07T12:57:24;-16261.94;;;-139.71;36.42
3598;BME280;1813;52.016;8.714;2023-04-07T12:59:58;-16261.94;;;-139.71;36.29
3598;BME280;1813;52.016;8.714;2023-04-07T13:02:36;-16261.94;;;-139.71;35.97
3598;BME280;1813;52.016;8.714;2023-04-07T13:05:10;-16261.94;;;-139.71;37.21
3598;BME280;1813;52.016;8.714;2023-04-07T13:07:44;-16261.94;;;-139.71;35.76
3598;BME280;1813;52.016;8.714;2023-04-07T13:10:18;-16261.94;;;-139.71;36.58
3598;BME280;1813;52.016;8.714;2023-04-07T13:12:51;-16261.94;;;-139.71;37.03
3598;BME280;1813;52.016;8.714;2023-04-07T13:15:25;-16261.94;;;-139.71;36.54
3598;BME280;1813;52.016;8.714;2023-04-07T13:18:02;-16261.94;;;-139.71;36.36
3598;BME280;1813;52.016;8.714;2023-04-07T13:20:36;-16261.94;;;-139.71;36.68
3598;BME280;1813;52.016;8.714;2023-04-07T13:23:10;-16261.94;;;-139.71;35.82
3598;BME280;1813;52.016;8.714;2023-04-07T13:25:44;-16261.94;;;-139.71;35.21
3598;BME280;1813;52.016;8.714;2023-04-07T13:28:17;-16261.94;;;-139.71;35.64
3598;BME280;1813;52.016;8.714;2023-04-07T13:30:52;-16261.94;;;-139.71;35.87
3598;BME280;1813;52.016;8.714;2023-04-07T13:33:28;-16261.94;;;-139.71;35.42
3598;BME280;1813;52.016;8.714;2023-04-07T13:36:02;-16261.94;;;-139.71;35.38
3598;BME280;1813;52.016;8.714;2023-04-07T13:38:36;-16261.94;;;-139.71;35.35
3598;BME280;1813;52.016;8.714;2023-04-07T13:41:12;-16261.94;;;-139.71;34.47
3598;BME280;1813;52.016;8.714;2023-04-07T13:43:45;-16261.94;;;-139.71;34.42